sensor_id;sensor_type;location;lat;lon;timestamp;temperature;humidity
67005;HTU21D;53920;51.094;5.902;2023-03-26T00:00:47;9.65;71.31
67005;HTU21D;53920;51.094;5.902;2023-03-26T00:03:16;9.68;71.22
67005;HTU21D;53920;51.094;5.902;2023-03-26T00:05:44;9.76;70.96
67005;HTU21D;53920;51.094;5.902;2023-03-26T00:08:15;9.82;70.93
67005;HTU21D;53920;51.094;5.902;2023-03-26T00:10:42;9.89;70.91
67005;HTU21D;53920;51.094;5.902;2023-03-26T00:13:09;9.92;70.93
67005;HTU21D;53920;51.094;5.902;2023-03-26T00:15:36;9.94;70.84
67005;HTU21D;53920;51.094;5.902;2023-03-26T00:18:05;9.91;70.86
67005;HTU21D;53920;51.094;5.902;2023-03-26T00:20:34;9.85;71.00
67005;HTU21D;53920;51.094;5.902;2023-03-26T00:23:03;9.75;71.17
67005;HTU21D;53920;51.094;5.902;2023-03-26T00:25:32;9.67;71.26
67005;HTU21D;53920;51.094;5.902;2023-03-26T00:28:02;9.56;71.57
67005;HTU21D;53920;51.094;5.902;2023-03-26T00:30:28;9.49;71.82
67005;HTU21D;53920;51.094;5.902;2023-03-26T00:32:54;9.42;72.00
67005;HTU21D;53920;51.094;5.902;2023-03-26T00:35:20;9.34;72.14
67005;HTU21D;53920;51.094;5.902;2023-03-26T00:37:47;9.26;72.39
67005;HTU21D;53920;51.094;5.902;2023-03-26T00:40:16;9.22;72.68
67005;HTU21D;53920;51.094;5.902;2023-03-26T00:42:42;9.17;72.78
67005;HTU21D;53920;51.094;5.902;2023-03-26T00:45:08;9.12;72.92
67005;HTU21D;53920;51.094;5.902;2023-03-26T00:47:35;9.09;72.93
67005;HTU21D;53920;51.094;5.902;2023-03-26T00:50:02;9.05;72.95
67005;HTU21D;53920;51.094;5.902;2023-03-26T00:52:32;9.02;73.05
67005;HTU21D;53920;51.094;5.902;2023-03-26T00:54:58;8.97;73.12
67005;HTU21D;53920;51.094;5.902;2023-03-26T00:57:25;8.93;73.33
67005;HTU21D;53920;51.094;5.902;2023-03-26T00:59:55;8.89;73.48
67005;HTU21D;53920;51.094;5.902;2023-03-26T01:02:22;8.89;73.41
67005;HTU21D;53920;51.094;5.902;2023-03-26T01:04:55;8.89;73.27
67005;HTU21D;53920;51.094;5.902;2023-03-26T01:07:24;8.89;73.21
67005;HTU21D;53920;51.094;5.902;2023-03-26T01:09:59;8.90;73.04
67005;HTU21D;53920;51.094;5.902;2023-03-26T01:12:30;8.92;72.93
67005;HTU21D;53920;51.094;5.902;2023-03-26T01:15:02;8.92;72.89
67005;HTU21D;53920;51.094;5.902;2023-03-26T01:17:29;8.94;72.86
67005;HTU21D;53920;51.094;5.902;2023-03-26T01:20:20;8.94;72.79
67005;HTU21D;53920;51.094;5.902;2023-03-26T01:22:56;8.97;72.70
67005;HTU21D;53920;51.094;5.902;2023-03-26T01:25:31;8.96;72.70
67005;HTU21D;53920;51.094;5.902;2023-03-26T01:28:02;9.00;72.56
67005;HTU21D;53920;51.094;5.902;2023-03-26T01:30:41;8.94;72.56
67005;HTU21D;53920;51.094;5.902;2023-03-26T01:33:33;8.91;72.57
67005;HTU21D;53920;51.094;5.902;2023-03-26T01:36:07;8.91;72.57
67005;HTU21D;53920;51.094;5.902;2023-03-26T01:39:07;8.95;72.30
67005;HTU21D;53920;51.094;5.902;2023-03-26T01:41:45;9.01;71.99
67005;HTU21D;53920;51.094;5.902;2023-03-26T01:46:42;9.09;71.60
67005;HTU21D;53920;51.094;5.902;2023-03-26T01:49:09;9.11;71.42
67005;HTU21D;53920;51.094;5.902;2023-03-26T01:51:40;9.21;71.13
67005;HTU21D;53920;51.094;5.902;2023-03-26T01:54:15;9.27;70.93
67005;HTU21D;53920;51.094;5.902;2023-03-26T02:08:39;9.59;69.81
67005;HTU21D;53920;51.094;5.902;2023-03-26T02:11:12;9.63;69.52
67005;HTU21D;53920;51.094;5.902;2023-03-26T02:13:42;9.65;69.54
67005;HTU21D;53920;51.094;5.902;2023-03-26T02:16:11;9.72;69.45
67005;HTU21D;53920;51.094;5.902;2023-03-26T02:18:39;9.74;69.38
67005;HTU21D;53920;51.094;5.902;2023-03-26T02:21:09;9.77;69.16
67005;HTU21D;53920;51.094;5.902;2023-03-26T02:23:42;9.80;69.22
67005;HTU21D;53920;51.094;5.902;2023-03-26T02:26:14;9.80;69.12
67005;HTU21D;53920;51.094;5.902;2023-03-26T02:29:03;9.82;69.06
67005;HTU21D;53920;51.094;5.902;2023-03-26T02:31:30;9.84;69.06
67005;HTU21D;53920;51.094;5.902;2023-03-26T02:33:56;9.84;69.03
67005;HTU21D;53920;51.094;5.902;2023-03-26T02:36:24;9.88;68.97
67005;HTU21D;53920;51.094;5.902;2023-03-26T02:38:56;9.92;68.86
67005;HTU21D;53920;51.094;5.902;2023-03-26T02:41:26;9.97;68.71
67005;HTU21D;53920;51.094;5.902;2023-03-26T02:43:57;9.96;68.79
67005;HTU21D;53920;51.094;5.902;2023-03-26T02:46:35;9.98;68.88
67005;HTU21D;53920;51.094;5.902;2023-03-26T02:49:15;9.98;68.86
67005;HTU21D;53920;51.094;5.902;2023-03-26T02:51:42;9.97;68.99
67005;HTU21D;53920;51.094;5.902;2023-03-26T02:54:20;9.98;68.95
67005;HTU21D;53920;51.094;5.902;2023-03-26T02:57:28;9.99;69.16
67005;HTU21D;53920;51.094;5.902;2023-03-26T03:00:16;10.00;69.30
67005;HTU21D;53920;51.094;5.902;2023-03-26T03:02:45;10.00;69.37
67005;HTU21D;53920;51.094;5.902;2023-03-26T03:05:32;9.95;69.84
67005;HTU21D;53920;51.094;5.902;2023-03-26T03:08:18;9.97;69.92
67005;HTU21D;53920;51.094;5.902;2023-03-26T03:11:09;9.97;70.21
67005;HTU21D;53920;51.094;5.902;2023-03-26T03:13:41;9.93;70.57
67005;HTU21D;53920;51.094;5.902;2023-03-26T03:16:08;9.82;71.23
67005;HTU21D;53920;51.094;5.902;2023-03-26T03:18:34;9.75;71.69
67005;HTU21D;53920;51.094;5.902;2023-03-26T03:21:02;9.71;72.03
67005;HTU21D;53920;51.094;5.902;2023-03-26T03:23:28;9.72;72.06
67005;HTU21D;53920;51.094;5.902;2023-03-26T03:26:03;9.75;72.06
67005;HTU21D;53920;51.094;5.902;2023-03-26T03:28:32;9.78;71.94
67005;HTU21D;53920;51.094;5.902;2023-03-26T03:30:58;9.75;71.97
67005;HTU21D;53920;51.094;5.902;2023-03-26T03:33:29;9.80;71.86
67005;HTU21D;53920;51.094;5.902;2023-03-26T03:35:55;9.81;71.87
67005;HTU21D;53920;51.094;5.902;2023-03-26T03:38:22;9.83;71.76
67005;HTU21D;53920;51.094;5.902;2023-03-26T03:40:49;9.83;71.92
67005;HTU21D;53920;51.094;5.902;2023-03-26T03:43:17;9.77;72.32
67005;HTU21D;53920;51.094;5.902;2023-03-26T03:45:59;9.80;72.51
67005;HTU21D;53920;51.094;5.902;2023-03-26T03:48:46;9.81;72.75
67005;HTU21D;53920;51.094;5.902;2023-03-26T03:51:20;9.84;72.89
67005;HTU21D;53920;51.094;5.902;2023-03-26T03:53:54;9.74;73.23
67005;HTU21D;53920;51.094;5.902;2023-03-26T03:56:49;9.61;73.78
67005;HTU21D;53920;51.094;5.902;2023-03-26T03:59:15;9.53;74.11
67005;HTU21D;53920;51.094;5.902;2023-03-26T04:01:43;9.46;74.13
67005;HTU21D;53920;51.094;5.902;2023-03-26T04:04:33;9.36;74.22
67005;HTU21D;53920;51.094;5.902;2023-03-26T04:07:03;9.34;74.23
67005;HTU21D;53920;51.094;5.902;2023-03-26T04:09:45;9.32;74.22
67005;HTU21D;53920;51.094;5.902;2023-03-26T04:12:15;9.30;74.26
67005;HTU21D;53920;51.094;5.902;2023-03-26T04:14:48;9.30;74.25
67005;HTU21D;53920;51.094;5.902;2023-03-26T04:17:19;9.31;74.20
67005;HTU21D;53920;51.094;5.902;2023-03-26T04:19:50;9.32;74.09
67005;HTU21D;53920;51.094;5.902;2023-03-26T04:22:22;9.32;74.02
67005;HTU21D;53920;51.094;5.902;2023-03-26T04:24:55;9.35;74.05
67005;HTU21D;53920;51.094;5.902;2023-03-26T04:27:43;9.32;74.06
67005;HTU21D;53920;51.094;5.902;2023-03-26T04:30:19;9.31;74.11
67005;HTU21D;53920;51.094;5.902;2023-03-26T04:32:50;9.26;74.07
67005;HTU21D;53920;51.094;5.902;2023-03-26T04:35:17;9.29;73.99
67005;HTU21D;53920;51.094;5.902;2023-03-26T04:37:52;9.32;73.94
67005;HTU21D;53920;51.094;5.902;2023-03-26T04:40:26;9.37;73.78
67005;HTU21D;53920;51.094;5.902;2023-03-26T04:43:21;9.44;73.53
67005;HTU21D;53920;51.094;5.902;2023-03-26T04:45:58;9.52;73.32
67005;HTU21D;53920;51.094;5.902;2023-03-26T04:48:28;9.54;73.09
67005;HTU21D;53920;51.094;5.902;2023-03-26T04:50:56;9.57;72.98
67005;HTU21D;53920;51.094;5.902;2023-03-26T04:53:25;9.59;72.93
67005;HTU21D;53920;51.094;5.902;2023-03-26T04:56:48;9.66;72.59
67005;HTU21D;53920;51.094;5.902;2023-03-26T04:59:24;9.72;72.53
67005;HTU21D;53920;51.094;5.902;2023-03-26T05:01:53;9.82;72.15
67005;HTU21D;53920;51.094;5.902;2023-03-26T05:04:23;9.70;72.56
67005;HTU21D;53920;51.094;5.902;2023-03-26T05:06:50;9.62;73.14
67005;HTU21D;53920;51.094;5.902;2023-03-26T05:09:26;9.56;73.55
67005;HTU21D;53920;51.094;5.902;2023-03-26T05:12:19;9.54;73.84
67005;HTU21D;53920;51.094;5.902;2023-03-26T05:15:04;9.51;74.17
67005;HTU21D;53920;51.094;5.902;2023-03-26T05:17:45;9.52;74.28
67005;HTU21D;53920;51.094;5.902;2023-03-26T05:20:25;9.48;74.70
67005;HTU21D;53920;51.094;5.902;2023-03-26T05:22:52;9.45;75.09
67005;HTU21D;53920;51.094;5.902;2023-03-26T05:25:23;9.39;75.41
67005;HTU21D;53920;51.094;5.902;2023-03-26T05:27:51;9.32;76.41
67005;HTU21D;53920;51.094;5.902;2023-03-26T05:30:20;9.09;77.85
67005;HTU21D;53920;51.094;5.902;2023-03-26T05:32:49;8.95;79.09
67005;HTU21D;53920;51.094;5.902;2023-03-26T05:35:19;8.93;79.71
67005;HTU21D;53920;51.094;5.902;2023-03-26T05:37:46;8.94;79.90
67005;HTU21D;53920;51.094;5.902;2023-03-26T05:40:13;8.89;80.37
67005;HTU21D;53920;51.094;5.902;2023-03-26T05:42:52;8.88;80.80
67005;HTU21D;53920;51.094;5.902;2023-03-26T05:45:33;8.92;80.92
67005;HTU21D;53920;51.094;5.902;2023-03-26T05:48:08;8.92;80.82
67005;HTU21D;53920;51.094;5.902;2023-03-26T05:50:34;8.92;80.97
67005;HTU21D;53920;51.094;5.902;2023-03-26T05:53:00;8.90;81.32
67005;HTU21D;53920;51.094;5.902;2023-03-26T05:55:58;8.90;81.57
67005;HTU21D;53920;51.094;5.902;2023-03-26T05:58:43;8.90;81.69
67005;HTU21D;53920;51.094;5.902;2023-03-26T06:01:27;8.94;81.68
67005;HTU21D;53920;51.094;5.902;2023-03-26T06:04:20;8.95;81.81
67005;HTU21D;53920;51.094;5.902;2023-03-26T06:07:06;8.93;82.02
67005;HTU21D;53920;51.094;5.902;2023-03-26T06:09:37;8.97;81.99
67005;HTU21D;53920;51.094;5.902;2023-03-26T06:12:09;9.05;81.47
67005;HTU21D;53920;51.094;5.902;2023-03-26T06:14:36;9.08;81.47
67005;HTU21D;53920;51.094;5.902;2023-03-26T06:17:12;9.14;81.55
67005;HTU21D;53920;51.094;5.902;2023-03-26T06:19:56;9.24;81.21
67005;HTU21D;53920;51.094;5.902;2023-03-26T06:22:32;9.29;80.93
67005;HTU21D;53920;51.094;5.902;2023-03-26T06:25:17;9.20;81.30
67005;HTU21D;53920;51.094;5.902;2023-03-26T06:28:03;9.14;81.68
67005;HTU21D;53920;51.094;5.902;2023-03-26T06:30:42;9.12;81.88
67005;HTU21D;53920;51.094;5.902;2023-03-26T06:33:27;9.19;81.49
67005;HTU21D;53920;51.094;5.902;2023-03-26T06:35:54;9.21;81.52
67005;HTU21D;53920;51.094;5.902;2023-03-26T06:38:20;9.11;81.75
67005;HTU21D;53920;51.094;5.902;2023-03-26T06:40:46;9.06;82.07
67005;HTU21D;53920;51.094;5.902;2023-03-26T06:43:23;9.08;82.20
67005;HTU21D;53920;51.094;5.902;2023-03-26T06:46:08;9.06;82.23
67005;HTU21D;53920;51.094;5.902;2023-03-26T06:48:38;9.04;82.34
67005;HTU21D;53920;51.094;5.902;2023-03-26T06:51:27;9.02;82.61
67005;HTU21D;53920;51.094;5.902;2023-03-26T06:54:12;9.02;82.77
67005;HTU21D;53920;51.094;5.902;2023-03-26T06:56:46;9.06;82.79
67005;HTU21D;53920;51.094;5.902;2023-03-26T06:59:28;9.02;83.15
67005;HTU21D;53920;51.094;5.902;2023-03-26T07:02:12;9.04;83.04
67005;HTU21D;53920;51.094;5.902;2023-03-26T07:04:58;9.06;83.42
67005;HTU21D;53920;51.094;5.902;2023-03-26T07:07:42;9.15;83.22
67005;HTU21D;53920;51.094;5.902;2023-03-26T07:10:28;9.21;83.28
67005;HTU21D;53920;51.094;5.902;2023-03-26T07:13:20;9.25;83.24
67005;HTU21D;53920;51.094;5.902;2023-03-26T07:16:15;9.23;83.26
67005;HTU21D;53920;51.094;5.902;2023-03-26T07:18:59;9.23;83.27
67005;HTU21D;53920;51.094;5.902;2023-03-26T07:21:33;9.22;83.43
67005;HTU21D;53920;51.094;5.902;2023-03-26T07:24:01;9.16;83.52
67005;HTU21D;53920;51.094;5.902;2023-03-26T07:29:58;9.11;83.05
67005;HTU21D;53920;51.094;5.902;2023-03-26T07:39:43;8.59;83.55
67005;HTU21D;53920;51.094;5.902;2023-03-26T07:48:21;8.43;83.86
67005;HTU21D;53920;51.094;5.902;2023-03-26T07:51:09;8.39;83.84
67005;HTU21D;53920;51.094;5.902;2023-03-26T07:53:56;8.28;83.99
67005;HTU21D;53920;51.094;5.902;2023-03-26T07:56:53;8.20;84.12
67005;HTU21D;53920;51.094;5.902;2023-03-26T08:08:52;8.51;84.36
67005;HTU21D;53920;51.094;5.902;2023-03-26T08:14:14;8.59;84.24
67005;HTU21D;53920;51.094;5.902;2023-03-26T08:21:53;8.66;84.33
67005;HTU21D;53920;51.094;5.902;2023-03-26T08:25:19;8.63;83.85
67005;HTU21D;53920;51.094;5.902;2023-03-26T08:27:37;8.44;84.53
67005;HTU21D;53920;51.094;5.902;2023-03-26T08:32:33;8.36;84.98
67005;HTU21D;53920;51.094;5.902;2023-03-26T08:35:00;8.43;84.32
67005;HTU21D;53920;51.094;5.902;2023-03-26T08:37:29;8.44;84.55
67005;HTU21D;53920;51.094;5.902;2023-03-26T08:39:56;8.42;84.16
67005;HTU21D;53920;51.094;5.902;2023-03-26T08:48:15;8.33;83.90
67005;HTU21D;53920;51.094;5.902;2023-03-26T09:02:29;8.79;82.92
67005;HTU21D;53920;51.094;5.902;2023-03-26T09:05:18;8.88;82.45
67005;HTU21D;53920;51.094;5.902;2023-03-26T09:08:17;8.83;82.13
67005;HTU21D;53920;51.094;5.902;2023-03-26T09:32:45;9.24;81.94
67005;HTU21D;53920;51.094;5.902;2023-03-26T09:35:32;9.25;81.92
67005;HTU21D;53920;51.094;5.902;2023-03-26T09:38:44;9.32;81.88
67005;HTU21D;53920;51.094;5.902;2023-03-26T09:41:35;9.39;81.95
67005;HTU21D;53920;51.094;5.902;2023-03-26T09:47:25;9.55;81.57
67005;HTU21D;53920;51.094;5.902;2023-03-26T09:58:07;9.74;81.27
67005;HTU21D;53920;51.094;5.902;2023-03-26T10:03:50;9.86;81.21
67005;HTU21D;53920;51.094;5.902;2023-03-26T10:06:43;9.91;81.23
67005;HTU21D;53920;51.094;5.902;2023-03-26T10:12:32;10.07;80.59
67005;HTU21D;53920;51.094;5.902;2023-03-26T10:27:34;9.96;80.73
67005;HTU21D;53920;51.094;5.902;2023-03-26T10:33:13;9.85;80.48
67005;HTU21D;53920;51.094;5.902;2023-03-26T10:53:57;9.75;80.53
67005;HTU21D;53920;51.094;5.902;2023-03-26T10:56:34;9.81;80.55
67005;HTU21D;53920;51.094;5.902;2023-03-26T10:59:06;9.91;79.98
67005;HTU21D;53920;51.094;5.902;2023-03-26T11:04:22;9.94;79.98
67005;HTU21D;53920;51.094;5.902;2023-03-26T11:07:16;9.99;79.83
67005;HTU21D;53920;51.094;5.902;2023-03-26T11:09:56;10.15;79.46
67005;HTU21D;53920;51.094;5.902;2023-03-26T11:12:53;10.27;79.04
67005;HTU21D;53920;51.094;5.902;2023-03-26T11:18:13;10.38;79.02
67005;HTU21D;53920;51.094;5.902;2023-03-26T11:20:45;10.49;78.85
67005;HTU21D;53920;51.094;5.902;2023-03-26T11:29:38;10.65;78.09
67005;HTU21D;53920;51.094;5.902;2023-03-26T11:32:14;10.70;77.86
67005;HTU21D;53920;51.094;5.902;2023-03-26T11:37:32;10.81;78.11
67005;HTU21D;53920;51.094;5.902;2023-03-26T11:40:03;10.86;78.20
67005;HTU21D;53920;51.094;5.902;2023-03-26T11:42:33;10.89;78.08
67005;HTU21D;53920;51.094;5.902;2023-03-26T11:45:05;10.93;77.93
67005;HTU21D;53920;51.094;5.902;2023-03-26T11:47:45;10.95;77.64
67005;HTU21D;53920;51.094;5.902;2023-03-26T11:50:26;10.95;77.63
67005;HTU21D;53920;51.094;5.902;2023-03-26T11:52:56;10.90;77.83
67005;HTU21D;53920;51.094;5.902;2023-03-26T11:55:24;10.90;77.73
67005;HTU21D;53920;51.094;5.902;2023-03-26T11:57:56;10.96;77.18
67005;HTU21D;53920;51.094;5.902;2023-03-26T12:00:25;11.05;76.99
67005;HTU21D;53920;51.094;5.902;2023-03-26T12:02:57;11.08;76.84
67005;HTU21D;53920;51.094;5.902;2023-03-26T12:05:28;11.09;76.57
67005;HTU21D;53920;51.094;5.902;2023-03-26T12:08:03;11.11;76.86
67005;HTU21D;53920;51.094;5.902;2023-03-26T12:10:43;11.14;77.05
67005;HTU21D;53920;51.094;5.902;2023-03-26T12:16:14;11.39;76.63
67005;HTU21D;53920;51.094;5.902;2023-03-26T12:18:42;11.49;75.98
67005;HTU21D;53920;51.094;5.902;2023-03-26T12:21:17;11.53;75.16
67005;HTU21D;53920;51.094;5.902;2023-03-26T12:24:00;11.54;74.99
67005;HTU21D;53920;51.094;5.902;2023-03-26T12:26:36;11.62;74.60
67005;HTU21D;53920;51.094;5.902;2023-03-26T12:29:16;11.69;74.60
67005;HTU21D;53920;51.094;5.902;2023-03-26T12:32:02;11.74;74.30
67005;HTU21D;53920;51.094;5.902;2023-03-26T12:34:37;11.82;73.93
67005;HTU21D;53920;51.094;5.902;2023-03-26T12:37:06;11.73;74.34
67005;HTU21D;53920;51.094;5.902;2023-03-26T12:39:36;11.75;74.30
67005;HTU21D;53920;51.094;5.902;2023-03-26T12:42:22;11.74;74.05
67005;HTU21D;53920;51.094;5.902;2023-03-26T12:44:50;11.70;73.77
67005;HTU21D;53920;51.094;5.902;2023-03-26T12:47:29;11.60;73.95
67005;HTU21D;53920;51.094;5.902;2023-03-26T12:49:58;11.58;73.81
67005;HTU21D;53920;51.094;5.902;2023-03-26T12:57:37;11.70;73.32
67005;HTU21D;53920;51.094;5.902;2023-03-26T13:00:41;11.74;73.55
67005;HTU21D;53920;51.094;5.902;2023-03-26T13:17:22;12.06;72.61
67005;HTU21D;53920;51.094;5.902;2023-03-26T13:22:38;12.02;72.79
67005;HTU21D;53920;51.094;5.902;2023-03-26T13:26:29;11.90;72.59
67005;HTU21D;53920;51.094;5.902;2023-03-26T13:31:23;11.79;72.42
67005;HTU21D;53920;51.094;5.902;2023-03-26T13:48:23;11.77;72.40
67005;HTU21D;53920;51.094;5.902;2023-03-26T13:51:12;11.77;72.06
67005;HTU21D;53920;51.094;5.902;2023-03-26T13:53:48;11.84;72.05
67005;HTU21D;53920;51.094;5.902;2023-03-26T13:56:30;12.00;72.22
67005;HTU21D;53920;51.094;5.902;2023-03-26T14:01:55;12.60;70.61
67005;HTU21D;53920;51.094;5.902;2023-03-26T14:06:55;12.97;69.37
67005;HTU21D;53920;51.094;5.902;2023-03-26T14:09:46;13.09;68.68
67005;HTU21D;53920;51.094;5.902;2023-03-26T14:15:05;12.82;67.91
67005;HTU21D;53920;51.094;5.902;2023-03-26T14:18:08;12.51;68.11
67005;HTU21D;53920;51.094;5.902;2023-03-26T14:26:52;12.37;69.34
67005;HTU21D;53920;51.094;5.902;2023-03-26T14:29:40;12.45;69.22
67005;HTU21D;53920;51.094;5.902;2023-03-26T14:35:15;12.42;69.54
67005;HTU21D;53920;51.094;5.902;2023-03-26T14:54:40;12.57;70.40
67005;HTU21D;53920;51.094;5.902;2023-03-26T15:11:50;12.36;69.97
67005;HTU21D;53920;51.094;5.902;2023-03-26T15:20:40;12.47;69.97
67005;HTU21D;53920;51.094;5.902;2023-03-26T15:29:15;12.17;71.19
67005;HTU21D;53920;51.094;5.902;2023-03-26T15:34:32;11.98;72.13
67005;HTU21D;53920;51.094;5.902;2023-03-26T15:51:05;11.78;72.92
67005;HTU21D;53920;51.094;5.902;2023-03-26T15:58:41;11.45;73.89
67005;HTU21D;53920;51.094;5.902;2023-03-26T16:01:22;11.27;74.38
67005;HTU21D;53920;51.094;5.902;2023-03-26T16:12:28;10.77;75.68
67005;HTU21D;53920;51.094;5.902;2023-03-26T16:18:15;10.66;76.33
67005;HTU21D;53920;51.094;5.902;2023-03-26T16:21:02;10.66;76.71
67005;HTU21D;53920;51.094;5.902;2023-03-26T16:29:03;10.57;76.73
67005;HTU21D;53920;51.094;5.902;2023-03-26T16:31:32;10.49;76.79
67005;HTU21D;53920;51.094;5.902;2023-03-26T16:47:28;10.20;77.27
67005;HTU21D;53920;51.094;5.902;2023-03-26T16:50:25;10.09;77.55
67005;HTU21D;53920;51.094;5.902;2023-03-26T16:53:07;10.07;77.76
67005;HTU21D;53920;51.094;5.902;2023-03-26T17:03:53;9.86;77.51
67005;HTU21D;53920;51.094;5.902;2023-03-26T17:06:52;9.81;77.84
67005;HTU21D;53920;51.094;5.902;2023-03-26T17:12:53;9.80;77.91
67005;HTU21D;53920;51.094;5.902;2023-03-26T17:21:03;9.88;78.17
67005;HTU21D;53920;51.094;5.902;2023-03-26T17:32:09;9.98;77.39
67005;HTU21D;53920;51.094;5.902;2023-03-26T17:45:41;9.94;77.18
67005;HTU21D;53920;51.094;5.902;2023-03-26T17:47:41;9.95;77.05
67005;HTU21D;53920;51.094;5.902;2023-03-26T17:50:32;9.92;76.57
67005;HTU21D;53920;51.094;5.902;2023-03-26T17:53:05;9.86;75.59
67005;HTU21D;53920;51.094;5.902;2023-03-26T17:55:37;9.78;74.93
67005;HTU21D;53920;51.094;5.902;2023-03-26T17:58:16;9.72;74.32
67005;HTU21D;53920;51.094;5.902;2023-03-26T18:00:49;9.66;74.15
67005;HTU21D;53920;51.094;5.902;2023-03-26T18:12:26;9.41;73.01
67005;HTU21D;53920;51.094;5.902;2023-03-26T18:15:39;9.44;73.44
67005;HTU21D;53920;51.094;5.902;2023-03-26T18:18:13;9.47;73.54
67005;HTU21D;53920;51.094;5.902;2023-03-26T18:20:45;9.42;73.49
67005;HTU21D;53920;51.094;5.902;2023-03-26T18:23:45;9.40;73.19
67005;HTU21D;53920;51.094;5.902;2023-03-26T18:26:19;9.38;72.54
67005;HTU21D;53920;51.094;5.902;2023-03-26T18:29:12;9.32;71.78
67005;HTU21D;53920;51.094;5.902;2023-03-26T18:31:41;9.24;71.03
67005;HTU21D;53920;51.094;5.902;2023-03-26T18:34:16;9.18;70.49
67005;HTU21D;53920;51.094;5.902;2023-03-26T18:39:59;9.07;70.55
67005;HTU21D;53920;51.094;5.902;2023-03-26T18:42:30;9.07;70.57
67005;HTU21D;53920;51.094;5.902;2023-03-26T18:45:01;9.08;70.79
67005;HTU21D;53920;51.094;5.902;2023-03-26T18:47:29;9.09;71.16
67005;HTU21D;53920;51.094;5.902;2023-03-26T18:49:57;9.07;70.42
67005;HTU21D;53920;51.094;5.902;2023-03-26T18:52:26;9.03;70.17
67005;HTU21D;53920;51.094;5.902;2023-03-26T18:54:54;8.97;70.00
67005;HTU21D;53920;51.094;5.902;2023-03-26T18:57:27;8.94;69.52
67005;HTU21D;53920;51.094;5.902;2023-03-26T19:00:06;8.93;69.65
67005;HTU21D;53920;51.094;5.902;2023-03-26T19:02:35;8.94;69.62
67005;HTU21D;53920;51.094;5.902;2023-03-26T19:05:02;8.93;69.95
67005;HTU21D;53920;51.094;5.902;2023-03-26T19:07:32;8.94;70.26
67005;HTU21D;53920;51.094;5.902;2023-03-26T19:10:00;8.95;69.91
67005;HTU21D;53920;51.094;5.902;2023-03-26T19:12:29;8.90;69.02
67005;HTU21D;53920;51.094;5.902;2023-03-26T19:15:13;8.88;68.42
67005;HTU21D;53920;51.094;5.902;2023-03-26T19:17:43;8.81;68.60
67005;HTU21D;53920;51.094;5.902;2023-03-26T19:20:26;8.81;68.66
67005;HTU21D;53920;51.094;5.902;2023-03-26T19:22:54;8.81;68.32
67005;HTU21D;53920;51.094;5.902;2023-03-26T19:25:27;8.78;68.17
67005;HTU21D;53920;51.094;5.902;2023-03-26T19:27:53;8.75;68.22
67005;HTU21D;53920;51.094;5.902;2023-03-26T19:30:29;8.77;68.17
67005;HTU21D;53920;51.094;5.902;2023-03-26T19:33:03;8.80;67.90
67005;HTU21D;53920;51.094;5.902;2023-03-26T19:35:36;8.79;67.97
67005;HTU21D;53920;51.094;5.902;2023-03-26T19:38:22;8.83;68.07
67005;HTU21D;53920;51.094;5.902;2023-03-26T19:40:53;8.81;68.20
67005;HTU21D;53920;51.094;5.902;2023-03-26T19:43:19;8.79;67.71
67005;HTU21D;53920;51.094;5.902;2023-03-26T19:45:48;8.75;67.70
67005;HTU21D;53920;51.094;5.902;2023-03-26T19:48:18;8.74;67.85
67005;HTU21D;53920;51.094;5.902;2023-03-26T19:51:03;8.74;67.75
67005;HTU21D;53920;51.094;5.902;2023-03-26T19:53:35;8.71;67.99
67005;HTU21D;53920;51.094;5.902;2023-03-26T19:58:41;8.67;67.67
67005;HTU21D;53920;51.094;5.902;2023-03-26T20:01:19;8.65;67.76
67005;HTU21D;53920;51.094;5.902;2023-03-26T20:04:21;8.65;66.94
67005;HTU21D;53920;51.094;5.902;2023-03-26T20:06:40;8.53;66.10
67005;HTU21D;53920;51.094;5.902;2023-03-26T20:09:07;8.48;65.53
67005;HTU21D;53920;51.094;5.902;2023-03-26T20:11:36;8.44;65.74
67005;HTU21D;53920;51.094;5.902;2023-03-26T20:14:16;8.43;65.37
67005;HTU21D;53920;51.094;5.902;2023-03-26T20:16:43;8.36;64.67
67005;HTU21D;53920;51.094;5.902;2023-03-26T20:19:08;8.29;64.70
67005;HTU21D;53920;51.094;5.902;2023-03-26T20:21:35;8.27;64.90
67005;HTU21D;53920;51.094;5.902;2023-03-26T20:24:14;8.24;64.34
67005;HTU21D;53920;51.094;5.902;2023-03-26T20:26:41;8.18;63.95
67005;HTU21D;53920;51.094;5.902;2023-03-26T20:29:08;8.20;64.37
67005;HTU21D;53920;51.094;5.902;2023-03-26T20:31:34;8.17;64.35
67005;HTU21D;53920;51.094;5.902;2023-03-26T20:34:00;8.15;64.57
67005;HTU21D;53920;51.094;5.902;2023-03-26T20:36:27;8.12;64.06
67005;HTU21D;53920;51.094;5.902;2023-03-26T20:38:53;8.08;63.56
67005;HTU21D;53920;51.094;5.902;2023-03-26T20:41:21;8.06;63.37
67005;HTU21D;53920;51.094;5.902;2023-03-26T20:43:51;8.02;63.47
67005;HTU21D;53920;51.094;5.902;2023-03-26T20:46:20;8.00;62.99
67005;HTU21D;53920;51.094;5.902;2023-03-26T20:48:46;7.99;62.57
67005;HTU21D;53920;51.094;5.902;2023-03-26T20:51:14;7.94;62.57
67005;HTU21D;53920;51.094;5.902;2023-03-26T20:53:41;7.94;62.68
67005;HTU21D;53920;51.094;5.902;2023-03-26T20:56:17;7.94;62.87
67005;HTU21D;53920;51.094;5.902;2023-03-26T20:58:46;7.98;62.15
67005;HTU21D;53920;51.094;5.902;2023-03-26T21:01:17;8.00;61.78
67005;HTU21D;53920;51.094;5.902;2023-03-26T21:03:45;7.88;62.01
67005;HTU21D;53920;51.094;5.902;2023-03-26T21:06:12;7.88;61.86
67005;HTU21D;53920;51.094;5.902;2023-03-26T21:08:40;7.88;61.64
67005;HTU21D;53920;51.094;5.902;2023-03-26T21:11:28;7.87;61.76
67005;HTU21D;53920;51.094;5.902;2023-03-26T21:14:09;7.85;62.46
67005;HTU21D;53920;51.094;5.902;2023-03-26T21:16:38;7.88;62.75
67005;HTU21D;53920;51.094;5.902;2023-03-26T21:19:04;7.90;63.21
67005;HTU21D;53920;51.094;5.902;2023-03-26T21:30:18;7.83;62.81
67005;HTU21D;53920;51.094;5.902;2023-03-26T21:32:45;7.85;63.10
67005;HTU21D;53920;51.094;5.902;2023-03-26T21:35:13;7.83;62.62
67005;HTU21D;53920;51.094;5.902;2023-03-26T21:37:42;7.81;62.92
67005;HTU21D;53920;51.094;5.902;2023-03-26T21:40:13;7.81;62.60
67005;HTU21D;53920;51.094;5.902;2023-03-26T21:42:44;7.82;61.96
67005;HTU21D;53920;51.094;5.902;2023-03-26T21:45:12;7.81;61.76
67005;HTU21D;53920;51.094;5.902;2023-03-26T21:47:39;7.77;61.31
67005;HTU21D;53920;51.094;5.902;2023-03-26T21:50:11;7.76;61.12
67005;HTU21D;53920;51.094;5.902;2023-03-26T21:52:38;7.72;60.92
67005;HTU21D;53920;51.094;5.902;2023-03-26T21:55:16;7.68;61.11
67005;HTU21D;53920;51.094;5.902;2023-03-26T21:58:20;7.63;61.14
67005;HTU21D;53920;51.094;5.902;2023-03-26T22:06:14;7.47;61.63
67005;HTU21D;53920;51.094;5.902;2023-03-26T22:08:42;7.45;61.76
67005;HTU21D;53920;51.094;5.902;2023-03-26T22:11:10;7.39;61.35
67005;HTU21D;53920;51.094;5.902;2023-03-26T22:13:37;7.34;61.49
67005;HTU21D;53920;51.094;5.902;2023-03-26T22:16:04;7.30;61.75
67005;HTU21D;53920;51.094;5.902;2023-03-26T22:18:32;7.27;62.39
67005;HTU21D;53920;51.094;5.902;2023-03-26T22:20:59;7.25;62.78
67005;HTU21D;53920;51.094;5.902;2023-03-26T22:23:28;7.18;62.98
67005;HTU21D;53920;51.094;5.902;2023-03-26T22:26:02;7.11;63.45
67005;HTU21D;53920;51.094;5.902;2023-03-26T22:28:29;7.05;64.28
67005;HTU21D;53920;51.094;5.902;2023-03-26T22:31:03;6.85;64.66
67005;HTU21D;53920;51.094;5.902;2023-03-26T22:33:30;6.68;65.06